
Distance (Route):
Temperature : 11.0°C
Humidity : 87.0%
Pressure : 0hPa| Receiver | Date | Latitude | Longitude | Direction | Speed | Altitude | Climb | Temperature | Humidity | Pressure | Voltage | Killtimer | Uptime | BKT | XDATA |
|---|---|---|---|---|---|---|---|---|---|---|---|---|---|---|---|
| LZ4TU-5 | 2026-09-01 07:04:04 | 42.55690 | 24.05597 | 109° | 22km/h | 2624m | -19.0m/s | 11.0°C | 87.0% | 0hPa | 0V | 08:18:00 | 00:00:00 | 00:00:00 | |
| LZ4TU-5 | 2026-09-01 07:04:00 | 42.55698 | 24.05570 | 108° | 18km/h | 2699m | -19.1m/s | 10.6°C | 0% | 0hPa | 0V | 08:18:00 | 00:00:00 | 00:00:00 | |
| LZ4TU-5 | 2026-09-01 07:03:56 | 42.55706 | 24.05542 | 116° | 18km/h | 2794m | -18.9m/s | 9.8°C | 87.9% | 0hPa | 0V | 08:18:00 | 00:00:00 | 00:00:00 | |
| LZ4TU-5 | 2026-09-01 07:03:51 | 42.55712 | 24.05519 | 102° | 16km/h | 2869m | -18.8m/s | 9.1°C | 90.5% | 0hPa | 0V | 08:18:00 | 00:00:00 | 00:00:00 | |
| LZ4TU-5 | 2026-09-01 07:03:47 | 42.55716 | 24.05499 | 110° | 15km/h | 2944m | -19.2m/s | 8.5°C | 93.5% | 0hPa | 0V | 00:00:00 | 00:00:00 | 00:00:00 | |
| LZ4TU-5 | 2026-09-01 07:03:43 | 42.55718 | 24.05479 | 90° | 15km/h | 3020m | -19.4m/s | 8.1°C | 91.8% | 0hPa | 0V | 00:00:00 | 00:00:00 | 00:00:00 | |
| LZ4TU-5 | 2026-09-01 07:03:39 | 42.55718 | 24.05460 | 103° | 15km/h | 3097m | -19.6m/s | 7.6°C | 87.8% | 0hPa | 0V | 00:00:00 | 00:00:00 | 00:00:00 | |
| LZ4TU-5 | 2026-09-01 07:03:34 | 42.55719 | 24.05435 | 99° | 16km/h | 3196m | -19.9m/s | 6.9°C | 86.2% | 0hPa | 0V | 00:00:00 | 00:00:00 | 00:00:00 | |
| LZ4TU-5 | 2026-09-01 07:03:30 | 42.55720 | 24.05406 | 93° | 20km/h | 3297m | -20.1m/s | 6.2°C | 85.9% | 0hPa | 0V | 00:00:00 | 00:00:00 | 00:00:00 | |
| LZ4TU-5 | 2026-09-01 07:03:25 | 42.55721 | 24.05376 | 79° | 20km/h | 3396m | -19.7m/s | 5.3°C | 89.5% | 0hPa | 0V | 00:00:00 | 00:00:00 | 00:00:00 | |
| LZ4TU-5 | 2026-09-01 07:03:20 | 42.55719 | 24.05346 | 75° | 18km/h | 3492m | -19.1m/s | 4.7°C | 88.0% | 0hPa | 0V | 00:00:00 | 00:00:00 | 00:00:00 | |
| LZ4TU-5 | 2026-09-01 07:02:02 | 42.56038 | 24.04560 | 137° | 37km/h | 5032m | -20.2m/s | -4.2°C | 64.6% | 0hPa | 0V | 00:00:00 | 00:00:00 | 00:00:00 | |
| LZ4TU-5 | 2026-09-01 07:01:57 | 42.56074 | 24.04525 | 143° | 44km/h | 5129m | -20.7m/s | -4.8°C | 0% | 0hPa | 0V | 00:00:00 | 00:00:00 | 00:00:00 | |
| LZ4TU-5 | 2026-09-01 07:00:40 | 42.56527 | 24.03840 | 117° | 53km/h | 6746m | -22.2m/s | -12.7°C | 13.9% | 0hPa | 0V | 00:00:00 | 00:00:00 | 00:00:00 | |
| LZ4TU-5 | 2026-09-01 07:00:35 | 42.56558 | 24.03768 | 113° | 47km/h | 6858m | -22.6m/s | -13.5°C | 14.1% | 0hPa | 0V | 00:00:00 | 00:00:00 | 00:00:00 | |
| LZ4TU-5 | 2026-09-01 07:00:31 | 42.56578 | 24.03700 | 112° | 44km/h | 6968m | -22.1m/s | -14.5°C | 0% | 0hPa | 0V | 00:00:00 | 00:00:00 | 00:00:00 | |
| LZ4TU-5 | 2026-09-01 06:56:25 | 42.57784 | 23.96947 | 102° | 77km/h | 13342m | -30.5m/s | -59.5°C | 11.7% | 0hPa | 0V | 00:00:00 | 00:00:00 | 00:00:00 | |
| LZ4TU-5 | 2026-09-01 06:56:21 | 42.57798 | 23.96847 | 100° | 73km/h | 13464m | -30.9m/s | -59.5°C | 9.5% | 0hPa | 0V | 00:00:00 | 00:00:00 | 00:00:00 | |
| LZ3DJ-16 | 2026-09-01 06:55:31 | 42.57886 | 23.95715 | 97° | 49km/h | 15088m | -34.8m/s | -63.8°C | 4.8% | 0hPa | 0V | 08:26:00 | 00:00:00 | 00:00:00 | |
| LZ3DJ-16 | 2026-09-01 06:55:10 | 42.57914 | 23.95386 | 76° | 38km/h | 15837m | -36.7m/s | -63.2°C | 3.5% | 0hPa | 0V | 08:27:00 | 00:00:00 | 00:00:00 | |
| LZ3DJ-16 | 2026-09-01 06:54:49 | 42.57769 | 23.95147 | 67° | 53km/h | 16663m | -41.1m/s | -57.7°C | 2.1% | 0hPa | 0V | 08:27:00 | 00:00:00 | 00:00:00 | |
| LZ3DJ-16 | 2026-09-01 06:54:28 | 42.57765 | 23.94805 | 91° | 42km/h | 17539m | -43.2m/s | -58.0°C | 2.0% | 0hPa | 0V | 08:28:00 | 00:00:00 | 00:00:00 | |
| LZ3DJ-16 | 2026-09-01 06:54:08 | 42.57789 | 23.94558 | 83° | 16km/h | 18419m | -46.1m/s | -58.0°C | 2.0% | 0hPa | 0V | 08:28:00 | 00:00:00 | 00:00:00 | |
| LZ3DJ-16 | 2026-09-01 06:53:47 | 42.57767 | 23.94476 | 115° | 15km/h | 19411m | -48.7m/s | -56.4°C | 1.7% | 0hPa | 0V | 08:28:00 | 00:00:00 | 00:00:00 | |
| LZ3DJ-16 | 2026-09-01 06:53:27 | 42.57718 | 23.94425 | 348° | 13km/h | 20417m | -52.4m/s | -55.6°C | 1.7% | 0hPa | 0V | 08:29:00 | 00:00:00 | 00:00:00 | |
| LZ3DJ-16 | 2026-09-01 06:53:06 | 42.57650 | 23.94453 | 30° | 7km/h | 21508m | -57.5m/s | -54.9°C | 1.7% | 0hPa | 0V | 08:29:00 | 00:00:00 | 00:00:00 | |
| LZ3DJ-16 | 2026-09-01 06:52:46 | 42.57668 | 23.94462 | 237° | 11km/h | 22754m | -60.8m/s | -53.1°C | 1.5% | 0hPa | 0V | 00:00:00 | 00:00:00 | 00:00:00 | |
| LZ3DJ-16 | 2026-09-01 06:52:26 | 42.57692 | 23.94512 | 201° | 11km/h | 24050m | -69.2m/s | -51.5°C | 1.4% | 0hPa | 0V | 00:00:00 | 00:00:00 | 00:00:00 | |
| LZ3DJ-16 | 2026-09-01 06:52:05 | 42.57704 | 23.94604 | 281° | 13km/h | 25497m | -78.1m/s | -47.4°C | 1.2% | 0hPa | 0V | 00:00:00 | 00:00:00 | 00:00:00 | |
| LZ3DJ-16 | 2026-09-01 06:51:45 | 42.57669 | 23.94653 | 241° | 4km/h | 27156m | -73.0m/s | -43.7°C | 0.8% | 0hPa | 0V | 00:00:00 | 00:00:00 | 00:00:00 | |
| LZ3DJ-16 | 2026-09-01 06:50:43 | 42.57662 | 23.94761 | 348° | 9km/h | 27687m | 6.3m/s | -45.0°C | 0.9% | 0hPa | 0V | 00:00:00 | 00:00:00 | 00:00:00 | |
| LZ4TU-5 | 2026-09-01 06:50:26 | 42.57673 | 23.94799 | 289° | 7km/h | 27579m | 7.5m/s | -45.1°C | 1.0% | 0hPa | 0V | 00:00:00 | 00:00:00 | 00:00:00 | |
| LZ4TU-5 | 2026-09-01 06:50:22 | 42.57672 | 23.94808 | 235° | 7km/h | 27552m | 5.6m/s | -45.3°C | 0.9% | 0hPa | 0V | 00:00:00 | 00:00:00 | 00:00:00 | |
| LZ3DJ-16 | 2026-09-01 06:50:02 | 42.57703 | 23.94893 | 257° | 15km/h | 27427m | 6.9m/s | -45.3°C | 1.0% | 0hPa | 0V | 00:00:00 | 00:00:00 | 00:00:00 | |
| LZ3DJ-16 | 2026-09-01 06:49:41 | 42.57749 | 23.94957 | 188° | 15km/h | 27292m | 6.6m/s | -45.2°C | 1.0% | 0hPa | 0V | 00:00:00 | 00:00:00 | 00:00:00 | |
| LZ3DJ-16 | 2026-09-01 06:49:21 | 42.57782 | 23.94971 | 301° | 2km/h | 27166m | 8.0m/s | -45.4°C | 1.0% | 0hPa | 0V | 00:00:00 | 00:00:00 | 00:00:00 | |
| LZ3DJ-16 | 2026-09-01 06:49:00 | 42.57750 | 23.94939 | 23° | 20km/h | 27039m | 5.7m/s | -46.1°C | 1.0% | 0hPa | 0V | 00:00:00 | 00:00:00 | 00:00:00 | |
| LZ4TU-5 | 2026-09-01 06:48:58 | 42.57743 | 23.94929 | 84° | 9km/h | 27021m | 6.1m/s | -45.9°C | 1.0% | 0hPa | 0V | 00:00:00 | 00:00:00 | 00:00:00 | |
| LZ4TU-5 | 2026-09-01 06:48:53 | 42.57736 | 23.94920 | 18° | 15km/h | 26989m | 5.7m/s | -45.9°C | 1.0% | 0hPa | 0V | 00:00:00 | 00:00:00 | 00:00:00 | |
| LZ3DJ-16 | 2026-09-01 06:48:40 | 42.57705 | 23.94925 | 326° | 15km/h | 26905m | 7.5m/s | -45.8°C | 1.0% | 0hPa | 0V | 00:00:00 | 00:00:00 | 00:00:00 | |
| LZ3DJ-16 | 2026-09-01 06:48:20 | 42.57627 | 23.94934 | 360° | 16km/h | 26782m | 6.6m/s | -46.6°C | 1.0% | 0hPa | 0V | 00:00:00 | 00:00:00 | 00:00:00 | |
| LZ3DJ-16 | 2026-09-01 06:47:39 | 42.57411 | 23.95019 | 338° | 33km/h | 26538m | 7.8m/s | -47.5°C | 1.1% | 0hPa | 0V | 00:00:00 | 00:00:00 | 00:00:00 | |
| LZ4TU-5 | 2026-09-01 06:47:20 | 42.57260 | 23.95113 | 322° | 29km/h | 26424m | 5.4m/s | -47.2°C | 1.0% | 0hPa | 0V | 00:00:00 | 00:00:00 | 00:00:00 | |
| LZ3DJ-16 | 2026-09-01 06:47:17 | 42.57249 | 23.95125 | 325° | 27km/h | 26412m | 6.7m/s | -47.2°C | 1.0% | 0hPa | 0V | 00:00:00 | 00:00:00 | 00:00:00 | |
| LZ4TU-5 | 2026-09-01 06:47:16 | 42.57238 | 23.95138 | 318° | 33km/h | 26400m | 7.3m/s | -47.1°C | 1.0% | 0hPa | 0V | 00:00:00 | 00:00:00 | 00:00:00 | |
| LZ3DJ-16 | 2026-09-01 06:46:58 | 42.57130 | 23.95295 | 311° | 33km/h | 26289m | 7.6m/s | -47.3°C | 1.0% | 0hPa | 0V | 00:00:00 | 00:00:00 | 00:00:00 | |
| LZ3DJ-16 | 2026-09-01 06:46:36 | 42.57064 | 23.95442 | 285° | 24km/h | 26164m | 6.9m/s | -47.7°C | 1.1% | 0hPa | 0V | 00:00:00 | 00:00:00 | 00:00:00 | |
| LZ3DJ-16 | 2026-09-01 06:46:16 | 42.56996 | 23.95591 | 302° | 29km/h | 26037m | 5.4m/s | -47.8°C | 1.1% | 0hPa | 0V | 00:00:00 | 00:00:00 | 00:00:00 | |
| LZ3DJ-18 | 2026-09-01 06:45:35 | 42.57001 | 23.95926 | 228° | 20km/h | 25786m | 4.5m/s | -47.8°C | 1.1% | 0hPa | 0V | 00:00:00 | 00:00:00 | 00:00:00 | |
| LZ4TU-5 | 2026-09-01 06:45:31 | 42.57019 | 23.95953 | 229° | 31km/h | 25763m | 6.6m/s | -47.7°C | 1.0% | 0hPa | 0V | 00:00:00 | 00:00:00 | 00:00:00 | |
| LZ4TU-5 | 2026-09-01 06:45:26 | 42.57039 | 23.95995 | 252° | 26km/h | 25731m | 5.7m/s | -48.0°C | 1.1% | 0hPa | 0V | 00:00:00 | 00:00:00 | 00:00:00 | |
| LZ3DJ-18 | 2026-09-01 06:45:15 | 42.57080 | 23.96064 | 222° | 31km/h | 25665m | 7.4m/s | -48.7°C | 1.1% | 0hPa | 0V | 00:00:00 | 00:00:00 | 00:00:00 | |
| LZ3DJ-18 | 2026-09-01 06:44:54 | 42.57128 | 23.96129 | 10° | 4km/h | 25537m | 5.6m/s | -50.1°C | 1.2% | 0hPa | 0V | 00:00:00 | 00:00:00 | 00:00:00 | |
| LZ3DJ-18 | 2026-09-01 06:44:34 | 42.57071 | 23.96175 | 282° | 24km/h | 25407m | 6.4m/s | -50.9°C | 1.2% | 0hPa | 0V | 00:00:00 | 00:00:00 | 00:00:00 | |
| LZ3DJ-18 | 2026-09-01 06:44:14 | 42.57017 | 23.96327 | 272° | 22km/h | 25287m | 7.2m/s | -51.0°C | 1.2% | 0hPa | 0V | 00:00:00 | 00:00:00 | 00:00:00 | |
| LZ3DJ-18 | 2026-09-01 06:42:31 | 42.57189 | 23.97054 | 216° | 31km/h | 24649m | 5.3m/s | -51.8°C | 1.3% | 0hPa | 0V | 00:00:00 | 00:00:00 | 00:00:00 | |
| LZ4TU-5 | 2026-09-01 06:42:18 | 42.57253 | 23.97094 | 206° | 24km/h | 24574m | 4.3m/s | -51.8°C | 1.3% | 0hPa | 0V | 00:00:00 | 00:00:00 | 00:00:00 | |
| LZ4TU-5 | 2026-09-01 06:42:13 | 42.57277 | 23.97102 | 191° | 18km/h | 24543m | 4.8m/s | -51.8°C | 1.3% | 0hPa | 0V | 00:00:00 | 00:00:00 | 00:00:00 | |
| LZ3DJ-18 | 2026-09-01 06:42:10 | 42.57289 | 23.97101 | 164° | 15km/h | 24526m | 4.9m/s | -51.8°C | 1.3% | 0hPa | 0V | 00:00:00 | 00:00:00 | 00:00:00 | |
| LZ3DJ-18 | 2026-09-01 06:41:49 | 42.57368 | 23.97101 | 199° | 26km/h | 24411m | 6.4m/s | -52.0°C | 1.3% | 0hPa | 0V | 00:00:00 | 00:00:00 | 00:00:00 | |
| LZ3DJ-18 | 2026-09-01 06:41:29 | 42.57466 | 23.97093 | 165° | 24km/h | 24287m | 6.3m/s | -51.9°C | 1.2% | 0hPa | 0V | 00:00:00 | 00:00:00 | 00:00:00 | |
| LZ3DJ-18 | 2026-09-01 06:40:47 | 42.57565 | 23.96968 | 99° | 15km/h | 24033m | 4.9m/s | -52.8°C | 1.4% | 0hPa | 0V | 00:00:00 | 00:00:00 | 00:00:00 | |
| LZ4TU-5 | 2026-09-01 06:40:40 | 42.57581 | 23.96941 | 181° | 11km/h | 23992m | 7.7m/s | -52.7°C | 1.4% | 0hPa | 0V | 00:00:00 | 00:00:00 | 00:00:00 | |
| LZ4TU-5 | 2026-09-01 06:40:36 | 42.57582 | 23.96950 | 332° | 7km/h | 23968m | 5.1m/s | -52.7°C | 1.3% | 0hPa | 0V | 00:00:00 | 00:00:00 | 00:00:00 | |
| LZ3DJ-18 | 2026-09-01 06:40:27 | 42.57575 | 23.96937 | 201° | 9km/h | 23915m | 6.7m/s | -52.8°C | 1.3% | 0hPa | 0V | 00:00:00 | 00:00:00 | 00:00:00 | |
| LZ3DJ-18 | 2026-09-01 06:40:06 | 42.57558 | 23.96968 | 248° | 7km/h | 23794m | 5.2m/s | -53.4°C | 1.4% | 0hPa | 0V | 00:00:00 | 00:00:00 | 00:00:00 | |
| LZ3DJ-18 | 2026-09-01 06:39:46 | 42.57550 | 23.96975 | 26° | 7km/h | 23663m | 5.4m/s | -53.9°C | 1.4% | 0hPa | 0V | 00:00:00 | 00:00:00 | 00:00:00 | |
| LZ3DJ-18 | 2026-09-01 06:39:26 | 42.57531 | 23.97041 | 261° | 18km/h | 23545m | 5.1m/s | -54.0°C | 1.5% | 0hPa | 0V | 00:00:00 | 00:00:00 | 00:00:00 | |
| LZ3DJ-18 | 2026-09-01 06:39:05 | 42.57548 | 23.97129 | 267° | 5km/h | 23418m | 7.3m/s | -53.7°C | 1.4% | 0hPa | 0V | 00:00:00 | 00:00:00 | 00:00:00 | |
| LZ4TU-5 | 2026-09-01 06:38:53 | 42.57562 | 23.97150 | 161° | 7km/h | 23348m | 6.1m/s | -53.8°C | 1.4% | 0hPa | 0V | 00:00:00 | 00:00:00 | 00:00:00 | |
| LZ4TU-5 | 2026-09-01 06:38:49 | 42.57567 | 23.97147 | 168° | 5km/h | 23324m | 6.4m/s | -53.7°C | 1.5% | 0hPa | 0V | 00:00:00 | 00:00:00 | 00:00:00 | |
| LZ3DJ-18 | 2026-09-01 06:38:44 | 42.57576 | 23.97152 | 227° | 9km/h | 23293m | 5.2m/s | -53.9°C | 1.4% | 0hPa | 0V | 00:00:00 | 00:00:00 | 00:00:00 | |
| LZ3DJ-18 | 2026-09-01 06:38:24 | 42.57551 | 23.97183 | 334° | 11km/h | 23175m | 6.8m/s | -54.1°C | 1.5% | 0hPa | 0V | 00:00:00 | 00:00:00 | 00:00:00 | |
| LZ3DJ-18 | 2026-09-01 06:38:04 | 42.57490 | 23.97242 | 347° | 18km/h | 23059m | 5.5m/s | -54.3°C | 1.5% | 0hPa | 0V | 00:00:00 | 00:00:00 | 00:00:00 | |
| LZ3DJ-18 | 2026-09-01 06:37:42 | 42.57458 | 23.97323 | 267° | 18km/h | 22938m | 7.2m/s | -54.1°C | 1.5% | 0hPa | 0V | 00:00:00 | 00:00:00 | 00:00:00 | |
| LZ3DJ-18 | 2026-09-01 06:37:22 | 42.57512 | 23.97374 | 178° | 13km/h | 22816m | 6.1m/s | -54.1°C | 1.5% | 0hPa | 0V | 00:00:00 | 00:00:00 | 00:00:00 | |
| LZ3DJ-18 | 2026-09-01 06:37:02 | 42.57561 | 23.97376 | 185° | 7km/h | 22702m | 4.1m/s | -54.6°C | 1.5% | 0hPa | 0V | 00:00:00 | 00:00:00 | 00:00:00 | |
| LZ4TU-5 | 2026-09-01 06:36:44 | 42.57573 | 23.97375 | 199° | 7km/h | 22597m | 6.2m/s | -54.6°C | 1.5% | 0hPa | 0V | 00:00:00 | 00:00:00 | 00:00:00 | |
| LZ3DJ-18 | 2026-09-01 06:36:41 | 42.57577 | 23.97379 | 246° | 7km/h | 22580m | 5.6m/s | -54.7°C | 1.5% | 0hPa | 0V | 00:00:00 | 00:00:00 | 00:00:00 | |
| LZ4TU-5 | 2026-09-01 06:36:40 | 42.57578 | 23.97381 | 268° | 5km/h | 22574m | 5.0m/s | -54.8°C | 1.5% | 0hPa | 0V | 00:00:00 | 00:00:00 | 00:00:00 | |
| LZ3DJ-18 | 2026-09-01 06:36:20 | 42.57557 | 23.97392 | 39° | 15km/h | 22457m | 5.1m/s | -55.1°C | 1.6% | 0hPa | 0V | 00:00:00 | 00:00:00 | 00:00:00 | |
| LZ3DJ-18 | 2026-09-01 06:35:59 | 42.57565 | 23.97374 | 0° | 0km/h | 22338m | 5.1m/s | -54.8°C | 1.6% | 0hPa | 0V | 00:00:00 | 00:00:00 | 00:00:00 | |
| LZ3DJ-18 | 2026-09-01 06:35:39 | 42.57607 | 23.97395 | 240° | 9km/h | 22219m | 6.2m/s | -54.5°C | 1.5% | 0hPa | 0V | 00:00:00 | 00:00:00 | 00:00:00 | |
| LZ3DJ-18 | 2026-09-01 06:35:18 | 42.57616 | 23.97355 | 67° | 11km/h | 22098m | 5.5m/s | -54.1°C | 1.5% | 0hPa | 0V | 00:00:00 | 00:00:00 | 00:00:00 | |
| LZ4TU-5 | 2026-09-01 06:35:08 | 42.57605 | 23.97321 | 64° | 11km/h | 22039m | 5.4m/s | -54.0°C | 1.5% | 0hPa | 0V | 00:00:00 | 00:00:00 | 00:00:00 | |
| LZ4TU-5 | 2026-09-01 06:35:03 | 42.57601 | 23.97297 | 68° | 13km/h | 22011m | 3.7m/s | -54.0°C | 1.5% | 0hPa | 0V | 00:00:00 | 00:00:00 | 00:00:00 | |
| LZ3DJ-18 | 2026-09-01 06:34:57 | 42.57597 | 23.97284 | 57° | 7km/h | 21982m | 5.2m/s | -54.0°C | 1.5% | 0hPa | 0V | 00:00:00 | 00:00:00 | 00:00:00 | |
| LZ3DJ-18 | 2026-09-01 06:34:16 | 42.57530 | 23.97222 | 29° | 9km/h | 21736m | 5.4m/s | -54.3°C | 1.6% | 0hPa | 0V | 00:00:00 | 00:00:00 | 00:00:00 | |
| LZ3DJ-18 | 2026-09-01 06:33:56 | 42.57489 | 23.97171 | 62° | 13km/h | 21624m | 5.5m/s | -54.5°C | 1.5% | 0hPa | 0V | 00:00:00 | 00:00:00 | 00:00:00 | |
| LZ3DJ-18 | 2026-09-01 06:33:35 | 42.57444 | 23.97119 | 54° | 18km/h | 21502m | 4.6m/s | -55.6°C | 1.6% | 0hPa | 0V | 00:00:00 | 00:00:00 | 00:00:00 | |
| LZ4TU-5 | 2026-09-01 06:33:31 | 42.57435 | 23.97103 | 36° | 11km/h | 21481m | 5.7m/s | -55.4°C | 1.5% | 0hPa | 0V | 00:00:00 | 00:00:00 | 00:00:00 | |
| LZ4TU-5 | 2026-09-01 06:33:26 | 42.57424 | 23.97093 | 26° | 11km/h | 21453m | 6.5m/s | -55.5°C | 1.6% | 0hPa | 0V | 00:00:00 | 00:00:00 | 00:00:00 | |
| LZ3DJ-18 | 2026-09-01 06:33:14 | 42.57392 | 23.97087 | 358° | 13km/h | 21389m | 4.9m/s | -55.7°C | 1.6% | 0hPa | 0V | 00:00:00 | 00:00:00 | 00:00:00 | |
| LZ3DJ-18 | 2026-09-01 06:32:54 | 42.57320 | 23.97120 | 335° | 18km/h | 21266m | 6.0m/s | -55.4°C | 1.6% | 0hPa | 0V | 00:00:00 | 00:00:00 | 00:00:00 | |
| LZ3DJ-18 | 2026-09-01 06:32:33 | 42.57228 | 23.97173 | 355° | 24km/h | 21144m | 5.8m/s | -55.5°C | 1.6% | 0hPa | 0V | 00:00:00 | 00:00:00 | 00:00:00 | |
| LZ3DJ-18 | 2026-09-01 06:32:12 | 42.57125 | 23.97132 | 19° | 22km/h | 21028m | 4.7m/s | -55.3°C | 1.6% | 0hPa | 0V | 00:00:00 | 00:00:00 | 00:00:00 | |
| LZ3DJ-18 | 2026-09-01 06:31:52 | 42.57021 | 23.97133 | 342° | 18km/h | 20912m | 5.7m/s | -55.5°C | 1.7% | 0hPa | 0V | 00:00:00 | 00:00:00 | 00:00:00 | |
| LZ4TU-5 | 2026-09-01 06:31:48 | 42.56995 | 23.97140 | 355° | 26km/h | 20884m | 4.6m/s | -55.6°C | 1.6% | 0hPa | 0V | 00:00:00 | 00:00:00 | 00:00:00 | |
| LZ4TU-5 | 2026-09-01 06:31:43 | 42.56973 | 23.97149 | 343° | 20km/h | 20861m | 7.0m/s | -55.6°C | 1.6% | 0hPa | 0V | 00:00:00 | 00:00:00 | 00:00:00 | |
| LZ3DJ-18 | 2026-09-01 06:31:32 | 42.56929 | 23.97189 | 315° | 16km/h | 20795m | 4.5m/s | -55.1°C | 1.6% | 0hPa | 0V | 00:00:00 | 00:00:00 | 00:00:00 | |
| LZ3DJ-18 | 2026-09-01 06:31:10 | 42.56854 | 23.97345 | 277° | 29km/h | 20672m | 4.7m/s | -55.4°C | 1.6% | 0hPa | 0V | 00:00:00 | 00:00:00 | 00:00:00 | |
| LZ3DJ-18 | 2026-09-01 06:30:50 | 42.56833 | 23.97475 | 276° | 9km/h | 20551m | 6.5m/s | -55.5°C | 1.6% | 0hPa | 0V | 00:00:00 | 00:00:00 | 00:00:00 | |
| LZ3DJ-18 | 2026-09-01 06:30:29 | 42.56807 | 23.97468 | 73° | 13km/h | 20432m | 6.5m/s | -56.2°C | 1.7% | 0hPa | 0V | 00:00:00 | 00:00:00 | 00:00:00 | |
| LZ4TU-5 | 2026-09-01 06:30:15 | 42.56753 | 23.97413 | 81° | 18km/h | 20351m | 5.3m/s | -55.9°C | 1.6% | 0hPa | 0V | 00:00:00 | 00:00:00 | 00:00:00 | |
| LZ4TU-5 | 2026-09-01 06:30:10 | 42.56746 | 23.97390 | 43° | 13km/h | 20324m | 4.3m/s | -55.8°C | 1.6% | 0hPa | 0V | 00:00:00 | 00:00:00 | 00:00:00 | |
| LZ3DJ-18 | 2026-09-01 06:29:48 | 42.56704 | 23.97349 | 51° | 13km/h | 20211m | 6.7m/s | -55.9°C | 1.6% | 0hPa | 0V | 00:00:00 | 00:00:00 | 00:00:00 | |
| LZ3DJ-18 | 2026-09-01 06:29:27 | 42.56644 | 23.97229 | 59° | 26km/h | 20097m | 6.9m/s | -56.3°C | 1.7% | 0hPa | 0V | 00:00:00 | 00:00:00 | 00:00:00 | |
| LZ3DJ-18 | 2026-09-01 06:29:07 | 42.56543 | 23.97080 | 36° | 26km/h | 19983m | 6.3m/s | -56.9°C | 1.7% | 0hPa | 0V | 00:00:00 | 00:00:00 | 00:00:00 | |
| LZ3DJ-18 | 2026-09-01 06:28:46 | 42.56404 | 23.97011 | 358° | 24km/h | 19867m | 5.1m/s | -57.5°C | 1.8% | 0hPa | 0V | 00:00:00 | 00:00:00 | 00:00:00 | |
| LZ4TU-5 | 2026-09-01 06:28:37 | 42.56364 | 23.97010 | 18° | 15km/h | 19816m | 4.7m/s | -57.3°C | 1.8% | 0hPa | 0V | 00:00:00 | 00:00:00 | 00:00:00 | |
| LZ4TU-5 | 2026-09-01 06:28:32 | 42.56344 | 23.97008 | 360° | 13km/h | 19787m | 5.1m/s | -57.0°C | 1.8% | 0hPa | 0V | 00:00:00 | 00:00:00 | 00:00:00 | |
| LZ3DJ-18 | 2026-09-01 06:28:26 | 42.56335 | 23.97015 | 353° | 5km/h | 19754m | 3.5m/s | -57.0°C | 1.8% | 0hPa | 0V | 00:00:00 | 00:00:00 | 00:00:00 | |
| LZ3DJ-18 | 2026-09-01 06:28:06 | 42.56342 | 23.97049 | 197° | 13km/h | 19641m | 4.9m/s | -57.7°C | 1.8% | 0hPa | 0V | 00:00:00 | 00:00:00 | 00:00:00 | |
| LZ3DJ-18 | 2026-09-01 06:27:46 | 42.56411 | 23.97010 | 149° | 16km/h | 19531m | 5.4m/s | -57.6°C | 1.8% | 0hPa | 0V | 00:00:00 | 00:00:00 | 00:00:00 | |
| LZ3DJ-18 | 2026-09-01 06:27:25 | 42.56466 | 23.96934 | 145° | 13km/h | 19415m | 6.0m/s | -58.1°C | 1.9% | 0hPa | 0V | 00:00:00 | 00:00:00 | 00:00:00 | |
| LZ3DJ-18 | 2026-09-01 06:27:05 | 42.56487 | 23.96839 | 91° | 16km/h | 19308m | 5.4m/s | -58.3°C | 1.9% | 0hPa | 0V | 00:00:00 | 00:00:00 | 00:00:00 | |
| LZ4TU-5 | 2026-09-01 06:27:01 | 42.56483 | 23.96812 | 69° | 20km/h | 19285m | 6.8m/s | -58.3°C | 1.9% | 0hPa | 0V | 00:00:00 | 00:00:00 | 00:00:00 | |
| LZ4TU-5 | 2026-09-01 06:26:56 | 42.56467 | 23.96782 | 51° | 22km/h | 19258m | 6.5m/s | -58.3°C | 1.9% | 0hPa | 0V | 00:00:00 | 00:00:00 | 00:00:00 | |
| LZ3DJ-18 | 2026-09-01 06:26:44 | 42.56433 | 23.96717 | 30° | 18km/h | 19190m | 6.8m/s | -57.9°C | 1.9% | 0hPa | 0V | 00:00:00 | 00:00:00 | 00:00:00 | |
| LZ3DJ-18 | 2026-09-01 06:26:23 | 42.56336 | 23.96664 | 12° | 9km/h | 19070m | 5.5m/s | -57.9°C | 1.9% | 0hPa | 0V | 00:00:00 | 00:00:00 | 00:00:00 | |
| LZ3DJ-18 | 2026-09-01 06:26:02 | 42.56290 | 23.96635 | 58° | 5km/h | 18945m | 5.1m/s | -57.6°C | 1.8% | 0hPa | 0V | 00:00:00 | 00:00:00 | 00:00:00 | |
| LZ3DJ-18 | 2026-09-01 06:25:42 | 42.56308 | 23.96591 | 140° | 5km/h | 18831m | 7.0m/s | -57.9°C | 1.9% | 0hPa | 0V | 00:00:00 | 00:00:00 | 00:00:00 | |
| LZ4TU-5 | 2026-09-01 06:25:24 | 42.56328 | 23.96539 | 113° | 15km/h | 18735m | 4.5m/s | -58.2°C | 1.9% | 0hPa | 0V | 00:00:00 | 00:00:00 | 00:00:00 | |
| LZ3DJ-18 | 2026-09-01 06:25:21 | 42.56332 | 23.96530 | 133° | 16km/h | 18724m | 5.2m/s | -58.2°C | 1.9% | 0hPa | 0V | 00:00:00 | 00:00:00 | 00:00:00 | |
| LZ4TU-5 | 2026-09-01 06:25:20 | 42.56338 | 23.96521 | 130° | 20km/h | 18713m | 6.2m/s | -58.3°C | 2.0% | 0hPa | 0V | 00:00:00 | 00:00:00 | 00:00:00 | |
| LZ3DJ-18 | 2026-09-01 06:25:01 | 42.56379 | 23.96399 | 94° | 26km/h | 18612m | 4.5m/s | -58.9°C | 2.1% | 0hPa | 0V | 00:00:00 | 00:00:00 | 00:00:00 | |
| LZ3DJ-18 | 2026-09-01 06:24:20 | 42.56452 | 23.96023 | 104° | 31km/h | 18394m | 4.4m/s | -59.0°C | 2.1% | 0hPa | 0V | 00:00:00 | 00:00:00 | 00:00:00 | |
| LZ3DJ-18 | 2026-09-01 06:24:00 | 42.56532 | 23.95841 | 133° | 35km/h | 18285m | 6.9m/s | -58.8°C | 2.1% | 0hPa | 0V | 00:00:00 | 00:00:00 | 00:00:00 | |
| LZ4TU-5 | 2026-09-01 06:23:41 | 42.56667 | 23.95647 | 130° | 49km/h | 18180m | 5.1m/s | -58.3°C | 2.1% | 0hPa | 0V | 00:00:00 | 00:00:00 | 00:00:00 | |
| LZ3DJ-18 | 2026-09-01 06:23:39 | 42.56675 | 23.95634 | 128° | 46km/h | 18174m | 7.2m/s | -58.3°C | 2.1% | 0hPa | 0V | 00:00:00 | 00:00:00 | 00:00:00 | |
| LZ4TU-5 | 2026-09-01 06:23:36 | 42.56699 | 23.95581 | 121° | 46km/h | 18151m | 5.3m/s | -58.3°C | 2.1% | 0hPa | 0V | 00:00:00 | 00:00:00 | 00:00:00 | |
| LZ3DJ-18 | 2026-09-01 06:23:19 | 42.56804 | 23.95334 | 114° | 51km/h | 18057m | 5.3m/s | -58.5°C | 2.1% | 0hPa | 0V | 00:00:00 | 00:00:00 | 00:00:00 | |
| LZ3DJ-18 | 2026-09-01 06:22:58 | 42.56887 | 23.94964 | 103° | 51km/h | 17950m | 6.3m/s | -58.2°C | 2.1% | 0hPa | 0V | 00:00:00 | 00:00:00 | 00:00:00 | |
| LZ3DJ-18 | 2026-09-01 06:22:38 | 42.56907 | 23.94636 | 92° | 55km/h | 17845m | 5.0m/s | -58.0°C | 2.1% | 0hPa | 0V | 00:00:00 | 00:00:00 | 00:00:00 | |
| LZ3DJ-18 | 2026-09-01 06:22:18 | 42.56931 | 23.94299 | 93° | 47km/h | 17742m | 4.1m/s | -58.1°C | 2.1% | 0hPa | 0V | 00:00:00 | 00:00:00 | 00:00:00 | |
| LZ4TU-5 | 2026-09-01 06:22:06 | 42.56948 | 23.94115 | 94° | 55km/h | 17680m | 4.9m/s | -58.2°C | 2.2% | 0hPa | 0V | 00:00:00 | 00:00:00 | 00:00:00 | |
| LZ4TU-5 | 2026-09-01 06:22:01 | 42.56947 | 23.94023 | 88° | 53km/h | 17655m | 4.8m/s | -58.1°C | 2.2% | 0hPa | 0V | 00:00:00 | 00:00:00 | 00:00:00 | |
| LZ3DJ-18 | 2026-09-01 06:21:57 | 42.56943 | 23.93956 | 91° | 47km/h | 17634m | 5.7m/s | -58.6°C | 2.1% | 0hPa | 0V | 00:00:00 | 00:00:00 | 00:00:00 | |
| LZ3DJ-18 | 2026-09-01 06:21:36 | 42.56909 | 23.93610 | 80° | 49km/h | 17522m | 6.0m/s | -58.2°C | 2.2% | 0hPa | 0V | 00:00:00 | 00:00:00 | 00:00:00 | |
| LZ3DJ-18 | 2026-09-01 06:21:15 | 42.56850 | 23.93294 | 81° | 42km/h | 17416m | 4.3m/s | -57.6°C | 2.1% | 0hPa | 0V | 00:00:00 | 00:00:00 | 00:00:00 | |
| LZ3DJ-18 | 2026-09-01 06:20:55 | 42.56794 | 23.92975 | 71° | 49km/h | 17305m | 3.6m/s | -58.1°C | 2.2% | 0hPa | 0V | 00:00:00 | 00:00:00 | 00:00:00 | |
| LZ3DJ-18 | 2026-09-01 06:20:35 | 42.56727 | 23.92687 | 74° | 42km/h | 17202m | 6.3m/s | -58.0°C | 2.1% | 0hPa | 0V | 00:00:00 | 00:00:00 | 00:00:00 | |
| LZ4TU-5 | 2026-09-01 06:20:32 | 42.56720 | 23.92647 | 81° | 40km/h | 17187m | 6.0m/s | -58.1°C | 2.2% | 0hPa | 0V | 00:00:00 | 00:00:00 | 00:00:00 | |
| LZ4TU-5 | 2026-09-01 06:20:28 | 42.56713 | 23.92593 | 81° | 40km/h | 17166m | 6.3m/s | -58.3°C | 2.2% | 0hPa | 0V | 00:00:00 | 00:00:00 | 00:00:00 | |
| LZ3DJ-18 | 2026-09-01 06:20:14 | 42.56694 | 23.92399 | 91° | 40km/h | 17094m | 6.5m/s | -59.5°C | 2.4% | 0hPa | 0V | 00:00:00 | 00:00:00 | 00:00:00 | |
| LZ3DJ-18 | 2026-09-01 06:19:54 | 42.56647 | 23.92116 | 59° | 53km/h | 16988m | 5.6m/s | -59.3°C | 2.5% | 0hPa | 0V | 00:00:00 | 00:00:00 | 00:00:00 | |
| LZ3DJ-18 | 2026-09-01 06:19:33 | 42.56511 | 23.91857 | 47° | 42km/h | 16875m | 7.0m/s | -59.1°C | 2.4% | 0hPa | 0V | 00:00:00 | 00:00:00 | 00:00:00 | |
| LZ3DJ-18 | 2026-09-01 06:19:13 | 42.56355 | 23.91661 | 51° | 44km/h | 16772m | 2.8m/s | -59.7°C | 2.7% | 0hPa | 0V | 00:00:00 | 00:00:00 | 00:00:00 | |
| LZ4TU-5 | 2026-09-01 06:19:01 | 42.56245 | 23.91511 | 38° | 49km/h | 16699m | 5.7m/s | -60.0°C | 2.8% | 0hPa | 0V | 00:00:00 | 00:00:00 | 00:00:00 | |
| LZ4TU-5 | 2026-09-01 06:18:56 | 42.56197 | 23.91460 | 43° | 46km/h | 16670m | 5.0m/s | -60.0°C | 2.8% | 0hPa | 0V | 00:00:00 | 00:00:00 | 00:00:00 | |
| LZ3DJ-18 | 2026-09-01 06:18:53 | 42.56173 | 23.91430 | 46° | 42km/h | 16652m | 6.7m/s | -59.9°C | 2.8% | 0hPa | 0V | 00:00:00 | 00:00:00 | 00:00:00 | |
| LZ3DJ-18 | 2026-09-01 06:18:32 | 42.55980 | 23.91299 | 9° | 40km/h | 16544m | 5.8m/s | -60.5°C | 3.3% | 0hPa | 0V | 00:00:00 | 00:00:00 | 00:00:00 | |
| LZ3DJ-18 | 2026-09-01 06:18:11 | 42.55786 | 23.91240 | 26° | 31km/h | 16437m | 3.5m/s | -59.7°C | 3.5% | 0hPa | 0V | 00:00:00 | 00:00:00 | 00:00:00 | |
| LZ3DJ-18 | 2026-09-01 06:17:50 | 42.55616 | 23.91181 | 50° | 24km/h | 16315m | 5.7m/s | -62.1°C | 4.3% | 0hPa | 0V | 00:00:00 | 00:00:00 | 00:00:00 | |
| LZ3DJ-18 | 2026-09-01 06:17:29 | 42.55552 | 23.90978 | 71° | 38km/h | 16200m | 6.3m/s | -62.4°C | 4.8% | 0hPa | 0V | 00:00:00 | 00:00:00 | 00:00:00 | |
| LZ4TU-5 | 2026-09-01 06:17:28 | 42.55549 | 23.90966 | 74° | 37km/h | 16195m | 4.7m/s | -62.6°C | 4.9% | 0hPa | 0V | 00:00:00 | 00:00:00 | 00:00:00 | |
| LZ4TU-5 | 2026-09-01 06:17:23 | 42.55539 | 23.90907 | 88° | 33km/h | 16168m | 4.9m/s | -62.8°C | 5.0% | 0hPa | 0V | 00:00:00 | 00:00:00 | 00:00:00 | |
| LZ3DJ-18 | 2026-09-01 06:17:08 | 42.55524 | 23.90678 | 87° | 51km/h | 16092m | 6.4m/s | -63.4°C | 5.2% | 0hPa | 0V | 00:00:00 | 00:00:00 | 00:00:00 | |
| LZ3DJ-18 | 2026-09-01 06:16:47 | 42.55488 | 23.90279 | 84° | 57km/h | 15988m | 4.4m/s | -63.9°C | 5.8% | 0hPa | 0V | 00:00:00 | 00:00:00 | 00:00:00 | |
| LZ3DJ-18 | 2026-09-01 06:16:27 | 42.55466 | 23.89926 | 91° | 49km/h | 15885m | 5.1m/s | -63.5°C | 5.7% | 0hPa | 0V | 00:00:00 | 00:00:00 | 00:00:00 | |
| LZ3DJ-18 | 2026-09-01 06:16:06 | 42.55486 | 23.89616 | 109° | 47km/h | 15772m | 4.2m/s | -63.5°C | 5.9% | 0hPa | 0V | 00:00:00 | 00:00:00 | 00:00:00 | |
| LZ4TU-5 | 2026-09-01 06:15:54 | 42.55525 | 23.89437 | 104° | 46km/h | 15708m | 5.1m/s | -63.3°C | 6.5% | 0hPa | 0V | 00:00:00 | 00:00:00 | 00:00:00 | |
| LZ4TU-5 | 2026-09-01 06:15:49 | 42.55534 | 23.89359 | 98° | 44km/h | 15684m | 3.8m/s | -63.1°C | 6.5% | 0hPa | 0V | 00:00:00 | 00:00:00 | 00:00:00 | |
| LZ3DJ-18 | 2026-09-01 06:15:46 | 42.55538 | 23.89313 | 100° | 44km/h | 15670m | 6.2m/s | -63.1°C | 6.2% | 0hPa | 0V | 00:00:00 | 00:00:00 | 00:00:00 | |
| LZ3DJ-18 | 2026-09-01 06:15:25 | 42.55597 | 23.88976 | 106° | 51km/h | 15560m | 4.8m/s | -63.1°C | 7.0% | 0hPa | 0V | 00:00:00 | 00:00:00 | 00:00:00 | |
| LZ3DJ-18 | 2026-09-01 06:15:04 | 42.55683 | 23.88610 | 104° | 53km/h | 15447m | 6.4m/s | -62.6°C | 7.8% | 0hPa | 0V | 00:00:00 | 00:00:00 | 00:00:00 | |
| LZ3DJ-18 | 2026-09-01 06:14:43 | 42.55784 | 23.88238 | 114° | 58km/h | 15329m | 4.9m/s | -63.0°C | 10.0% | 0hPa | 0V | 00:00:00 | 00:00:00 | 00:00:00 | |
| LZ3DJ-18 | 2026-09-01 06:14:22 | 42.55827 | 23.87890 | 92° | 49km/h | 15205m | 4.9m/s | -62.6°C | 10.7% | 0hPa | 0V | 00:00:00 | 00:00:00 | 00:00:00 | |
| LZ4TU-5 | 2026-09-01 06:14:21 | 42.55828 | 23.87857 | 96° | 49km/h | 15193m | 4.7m/s | -62.7°C | 10.9% | 0hPa | 0V | 00:00:00 | 00:00:00 | 00:00:00 | |
| LZ4TU-5 | 2026-09-01 06:14:16 | 42.55833 | 23.87773 | 94° | 51km/h | 15163m | 7.4m/s | -63.2°C | 11.6% | 0hPa | 0V | 00:00:00 | 00:00:00 | 00:00:00 | |
| LZ3DJ-18 | 2026-09-01 06:14:02 | 42.55812 | 23.87549 | 77° | 40km/h | 15082m | 5.4m/s | -63.6°C | 12.1% | 0hPa | 0V | 00:00:00 | 00:00:00 | 00:00:00 | |
| LZ3DJ-18 | 2026-09-01 06:13:42 | 42.55801 | 23.87262 | 91° | 44km/h | 14969m | 4.9m/s | -63.5°C | 12.5% | 0hPa | 0V | 00:00:00 | 00:00:00 | 00:00:00 | |
| LZ3DJ-18 | 2026-09-01 06:13:22 | 42.55832 | 23.86912 | 105° | 51km/h | 14848m | 7.3m/s | -63.8°C | 14.6% | 0hPa | 0V | 00:00:00 | 00:00:00 | 00:00:00 | |
| LZ3DJ-18 | 2026-09-01 06:13:01 | 42.55925 | 23.86502 | 105° | 71km/h | 14730m | 5.5m/s | -63.7°C | 15.5% | 0hPa | 0V | 00:00:00 | 00:00:00 | 00:00:00 | |
| LZ4TU-5 | 2026-09-01 06:12:45 | 42.56009 | 23.86147 | 110° | 71km/h | 14652m | 5.3m/s | -64.0°C | 16.3% | 0hPa | 0V | 00:00:00 | 00:00:00 | 00:00:00 | |
| LZ3DJ-18 | 2026-09-01 06:12:40 | 42.56038 | 23.86034 | 112° | 75km/h | 14628m | 3.7m/s | -63.9°C | 16.3% | 0hPa | 0V | 00:00:00 | 00:00:00 | 00:00:00 | |
| LZ3DJ-18 | 2026-09-01 06:11:58 | 42.56223 | 23.85011 | 101° | 71km/h | 14426m | 5.9m/s | -63.6°C | 16.8% | 0hPa | 0V | 00:00:00 | 00:00:00 | 00:00:00 | |
| LZ3DJ-18 | 2026-09-01 06:11:37 | 42.56275 | 23.84488 | 99° | 75km/h | 14324m | 5.9m/s | -63.3°C | 16.6% | 0hPa | 0V | 00:00:00 | 00:00:00 | 00:00:00 | |
| LZ3DJ-18 | 2026-09-01 06:11:17 | 42.56310 | 23.83982 | 91° | 77km/h | 14226m | 4.8m/s | -62.9°C | 15.3% | 0hPa | 0V | 00:00:00 | 00:00:00 | 00:00:00 | |
| LZ4TU-5 | 2026-09-01 06:11:09 | 42.56308 | 23.83780 | 91° | 71km/h | 14187m | 4.9m/s | -63.0°C | 15.1% | 0hPa | 0V | 00:00:00 | 00:00:00 | 00:00:00 | |
| LZ4TU-5 | 2026-09-01 06:11:05 | 42.56308 | 23.83682 | 90° | 71km/h | 14166m | 4.0m/s | -63.2°C | 15.0% | 0hPa | 0V | 00:00:00 | 00:00:00 | 00:00:00 | |
| LZ4TU-5 | 2026-09-01 06:11:00 | 42.56303 | 23.83555 | 87° | 78km/h | 14141m | 6.2m/s | -63.2°C | 14.6% | 0hPa | 0V | 00:00:00 | 00:00:00 | 00:00:00 | |
| LZ3DJ-18 | 2026-09-01 06:10:57 | 42.56299 | 23.83474 | 87° | 78km/h | 14125m | 4.0m/s | -63.2°C | 14.5% | 0hPa | 0V | 00:00:00 | 00:00:00 | 00:00:00 | |
| LZ3DJ-18 | 2026-09-01 06:10:36 | 42.56273 | 23.82940 | 92° | 58km/h | 14020m | 5.0m/s | -62.8°C | 14.4% | 0hPa | 0V | 00:00:00 | 00:00:00 | 00:00:00 | |
| LZ3DJ-18 | 2026-09-01 06:10:16 | 42.56261 | 23.82455 | 96° | 75km/h | 13906m | 7.4m/s | -61.8°C | 13.8% | 0hPa | 0V | 00:00:00 | 00:00:00 | 00:00:00 | |
| LZ3DJ-18 | 2026-09-01 06:09:56 | 42.56285 | 23.81979 | 91° | 71km/h | 13777m | 5.4m/s | -60.5°C | 13.5% | 0hPa | 0V | 00:00:00 | 00:00:00 | 00:00:00 | |
| LZ3DJ-18 | 2026-09-01 06:09:35 | 42.56301 | 23.81462 | 99° | 69km/h | 13640m | 9.2m/s | -60.1°C | 14.8% | 0hPa | 0V | 00:00:00 | 00:00:00 | 00:00:00 | |
| LZ4TU-5 | 2026-09-01 06:09:31 | 42.56315 | 23.81362 | 104° | 78km/h | 13612m | 5.5m/s | -59.9°C | 15.6% | 0hPa | 0V | 00:00:00 | 00:00:00 | 00:00:00 | |
| LZ4TU-5 | 2026-09-01 06:09:26 | 42.56338 | 23.81236 | 102° | 75km/h | 13587m | 5.2m/s | -60.0°C | 15.9% | 0hPa | 0V | 00:00:00 | 00:00:00 | 00:00:00 | |
| LZ3DJ-18 | 2026-09-01 06:09:14 | 42.56396 | 23.80942 | 108° | 77km/h | 13526m | 5.4m/s | -60.0°C | 16.3% | 0hPa | 0V | 00:00:00 | 00:00:00 | 00:00:00 | |
| LZ3DJ-18 | 2026-09-01 06:08:53 | 42.56510 | 23.80441 | 103° | 84km/h | 13426m | 4.6m/s | -59.9°C | 16.6% | 0hPa | 0V | 00:00:00 | 00:00:00 | 00:00:00 | |
| LZ3DJ-18 | 2026-09-01 06:08:33 | 42.56617 | 23.79893 | 109° | 73km/h | 13313m | 5.6m/s | -59.4°C | 17.8% | 0hPa | 0V | 00:00:00 | 00:00:00 | 00:00:00 | |
| LZ3DJ-18 | 2026-09-01 06:08:13 | 42.56764 | 23.79379 | 111° | 86km/h | 13201m | 6.0m/s | -59.2°C | 19.5% | 0hPa | 0V | 00:00:00 | 00:00:00 | 00:00:00 | |
| LZ4TU-5 | 2026-09-01 06:07:59 | 42.56848 | 23.78993 | 105° | 82km/h | 13127m | 4.2m/s | -59.1°C | 19.4% | 0hPa | 0V | 00:00:00 | 00:00:00 | 00:00:00 | |
| LZ4TU-5 | 2026-09-01 06:07:55 | 42.56868 | 23.78887 | 105° | 82km/h | 13107m | 4.8m/s | -58.9°C | 19.6% | 0hPa | 0V | 00:00:00 | 00:00:00 | 00:00:00 | |
| LZ3DJ-18 | 2026-09-01 06:07:52 | 42.56885 | 23.78802 | 105° | 88km/h | 13092m | 5.7m/s | -58.8°C | 20.1% | 0hPa | 0V | 00:00:00 | 00:00:00 | 00:00:00 | |
| LZ4TU-5 | 2026-09-01 06:07:51 | 42.56890 | 23.78773 | 105° | 89km/h | 13087m | 5.3m/s | -58.9°C | 20.3% | 0hPa | 0V | 00:00:00 | 00:00:00 | 00:00:00 | |
| LZ4TU-5 | 2026-09-01 06:07:46 | 42.56912 | 23.78628 | 102° | 84km/h | 13061m | 5.3m/s | 0°C | 0% | 0hPa | 0V | 00:00:00 | 00:00:00 | 00:00:00 | |
| LZ3DJ-18 | 2026-09-01 06:07:32 | 42.56989 | 23.78236 | 104° | 84km/h | 12985m | 4.5m/s | -59.0°C | 21.9% | 0hPa | 0V | 00:00:00 | 00:00:00 | 00:00:00 | |
| LZ3DJ-18 | 2026-09-01 06:07:12 | 42.57119 | 23.77656 | 108° | 93km/h | 12884m | 4.3m/s | -58.3°C | 21.4% | 0hPa | 0V | 00:00:00 | 00:00:00 | 00:00:00 | |
| LZ3DJ-18 | 2026-09-01 06:06:52 | 42.57278 | 23.77077 | 110° | 93km/h | 12785m | 6.1m/s | -57.5°C | 22.5% | 0hPa | 0V | 00:00:00 | 00:00:00 | 00:00:00 | |
| LZ3DJ-18 | 2026-09-01 06:06:31 | 42.57451 | 23.76458 | 112° | 93km/h | 12684m | 4.7m/s | -57.5°C | 26.8% | 0hPa | 0V | 00:00:00 | 00:00:00 | 00:00:00 | |
| LZ4TU-5 | 2026-09-01 06:06:18 | 42.57574 | 23.76060 | 116° | 99km/h | 12621m | 3.9m/s | 0°C | 0% | 0hPa | 0V | 00:00:00 | 00:00:00 | 00:00:00 | |
| LZ4TU-5 | 2026-09-01 06:06:14 | 42.57614 | 23.75941 | 114° | 93km/h | 12603m | 3.7m/s | 0°C | 0% | 0hPa | 0V | 00:00:00 | 00:00:00 | 00:00:00 | |
| LZ3DJ-18 | 2026-09-01 06:06:10 | 42.57653 | 23.75820 | 117° | 102km/h | 12582m | 7.1m/s | -57.4°C | 30.1% | 0hPa | 0V | 00:00:00 | 00:00:00 | 00:00:00 | |
| LZ3DJ-18 | 2026-09-01 06:05:50 | 42.57887 | 23.75175 | 116° | 106km/h | 12479m | 6.1m/s | -56.6°C | 28.7% | 0hPa | 0V | 00:00:00 | 00:00:00 | 00:00:00 | |
| LZ3DJ-18 | 2026-09-01 06:05:29 | 42.58129 | 23.74472 | 115° | 108km/h | 12375m | 5.2m/s | -55.9°C | 27.9% | 0hPa | 0V | 00:00:00 | 00:00:00 | 00:00:00 | |
| LZ3DJ-18 | 2026-09-01 06:05:09 | 42.58355 | 23.73804 | 116° | 106km/h | 12275m | 4.8m/s | -55.5°C | 29.1% | 0hPa | 0V | 00:00:00 | 00:00:00 | 00:00:00 | |
| LZ3DJ-18 | 2026-09-01 06:04:49 | 42.58573 | 23.73131 | 115° | 108km/h | 12179m | 4.3m/s | -54.7°C | 27.2% | 0hPa | 0V | 00:00:00 | 00:00:00 | 00:00:00 | |
| LZ4TU-5 | 2026-09-01 06:04:35 | 42.58721 | 23.72662 | 115° | 108km/h | 12110m | 4.0m/s | 0°C | 0% | 0hPa | 0V | 00:00:00 | 00:00:00 | 00:00:00 | |
| LZ4TU-5 | 2026-09-01 06:04:31 | 42.58767 | 23.72524 | 114° | 113km/h | 12088m | 5.3m/s | 0°C | 0% | 0hPa | 0V | 00:00:00 | 00:00:00 | 00:00:00 | |
| LZ3DJ-18 | 2026-09-01 06:04:28 | 42.58787 | 23.72453 | 110° | 110km/h | 12078m | 6.1m/s | -53.7°C | 26.8% | 0hPa | 0V | 00:00:00 | 00:00:00 | 00:00:00 | |
| LZ4TU-5 | 2026-09-01 06:04:26 | 42.58814 | 23.72348 | 111° | 106km/h | 12062m | 5.1m/s | 0°C | 0% | 0hPa | 0V | 00:00:00 | 00:00:00 | 00:00:00 | |
| LZ3DJ-18 | 2026-09-01 06:04:09 | 42.58977 | 23.71775 | 111° | 106km/h | 11973m | 4.5m/s | -53.4°C | 29.0% | 0hPa | 0V | 00:00:00 | 00:00:00 | 00:00:00 | |
| LZ3DJ-18 | 2026-09-01 06:03:48 | 42.59163 | 23.71040 | 108° | 110km/h | 11867m | 5.6m/s | -52.6°C | 29.0% | 0hPa | 0V | 00:00:00 | 00:00:00 | 00:00:00 | |
| LZ3DJ-18 | 2026-09-01 06:03:27 | 42.59335 | 23.70300 | 108° | 110km/h | 11760m | 4.8m/s | -51.6°C | 28.0% | 0hPa | 0V | 00:00:00 | 00:00:00 | 00:00:00 | |
| LZ3DJ-18 | 2026-09-01 06:03:06 | 42.59495 | 23.69605 | 109° | 108km/h | 11660m | 4.2m/s | -50.9°C | 26.7% | 0hPa | 0V | 00:00:00 | 00:00:00 | 00:00:00 | |
| LZ4TU-5 | 2026-09-01 06:02:54 | 42.59590 | 23.69152 | 109° | 102km/h | 11591m | 4.3m/s | 0°C | 0% | 0hPa | 0V | 00:00:00 | 00:00:00 | 00:00:00 | |
| LZ3DJ-18 | 2026-09-01 06:02:46 | 42.59645 | 23.68909 | 106° | 106km/h | 11556m | 3.1m/s | -50.1°C | 25.7% | 0hPa | 0V | 00:00:00 | 00:00:00 | 00:00:00 | |
| LZ3DJ-18 | 2026-09-01 06:02:26 | 42.59786 | 23.68197 | 104° | 100km/h | 11450m | 5.2m/s | -49.2°C | 23.6% | 0hPa | 0V | 00:00:00 | 00:00:00 | 00:00:00 | |
| LZ3DJ-18 | 2026-09-01 06:02:06 | 42.59923 | 23.67531 | 110° | 106km/h | 11348m | 6.2m/s | -48.6°C | 24.0% | 0hPa | 0V | 00:00:00 | 00:00:00 | 00:00:00 | |
| LZ3DJ-18 | 2026-09-01 06:01:46 | 42.60081 | 23.66886 | 111° | 95km/h | 11244m | 5.7m/s | -47.6°C | 24.0% | 0hPa | 0V | 00:00:00 | 00:00:00 | 00:00:00 | |
| LZ3DJ-18 | 2026-09-01 06:01:25 | 42.60239 | 23.66199 | 107° | 106km/h | 11131m | 5.5m/s | -46.9°C | 23.3% | 0hPa | 0V | 00:00:00 | 00:00:00 | 00:00:00 | |
| LZ4TU-5 | 2026-09-01 06:01:20 | 42.60274 | 23.66028 | 106° | 100km/h | 11107m | 6.3m/s | 0°C | 0% | 0hPa | 0V | 00:00:00 | 00:00:00 | 00:00:00 | |
| LZ3DJ-18 | 2026-09-01 06:01:04 | 42.60399 | 23.65532 | 108° | 99km/h | 11026m | 5.4m/s | -46.1°C | 20.5% | 0hPa | 0V | 00:00:00 | 00:00:00 | 00:00:00 | |
| LZ3DJ-18 | 2026-09-01 06:00:43 | 42.60531 | 23.64858 | 105° | 89km/h | 10908m | 5.2m/s | -45.0°C | 18.3% | 0hPa | 0V | 00:00:00 | 00:00:00 | 00:00:00 | |
| LZ3DJ-18 | 2026-09-01 06:00:21 | 42.60656 | 23.64181 | 107° | 91km/h | 10798m | 7.8m/s | -44.3°C | 22.3% | 0hPa | 0V | 00:00:00 | 00:00:00 | 00:00:00 | |
| LZ3DJ-18 | 2026-09-01 06:00:01 | 42.60760 | 23.63576 | 101° | 86km/h | 10684m | 4.2m/s | -43.4°C | 24.9% | 0hPa | 0V | 00:00:00 | 00:00:00 | 00:00:00 | |
| LZ4TU-5 | 2026-09-01 05:59:44 | 42.60823 | 23.63055 | 101° | 89km/h | 10578m | 2.9m/s | 0°C | 0% | 0hPa | 0V | 00:00:00 | 00:00:00 | 00:00:00 | |
| LZ3DJ-18 | 2026-09-01 05:59:41 | 42.60838 | 23.62967 | 104° | 88km/h | 10560m | 8.1m/s | -42.7°C | 18.5% | 0hPa | 0V | 00:00:00 | 00:00:00 | 00:00:00 | |
| LZ4TU-5 | 2026-09-01 05:59:39 | 42.60847 | 23.62909 | 105° | 86km/h | 10548m | 6.2m/s | 0°C | 0% | 0hPa | 0V | 00:00:00 | 00:00:00 | 00:00:00 | |
| LZ3DJ-18 | 2026-09-01 05:59:20 | 42.60937 | 23.62351 | 104° | 89km/h | 10446m | 7.2m/s | -41.8°C | 20.2% | 0hPa | 0V | 00:00:00 | 00:00:00 | 00:00:00 | |
| LZ3DJ-18 | 2026-09-01 05:59:00 | 42.61046 | 23.61773 | 103° | 88km/h | 10334m | 6.7m/s | -41.1°C | 44.7% | 0hPa | 0V | 00:00:00 | 00:00:00 | 00:00:00 | |
| LZ3DJ-18 | 2026-09-01 05:58:39 | 42.61144 | 23.61148 | 102° | 95km/h | 10214m | 5.6m/s | -40.3°C | 23.2% | 0hPa | 0V | 00:00:00 | 00:00:00 | 00:00:00 | |
| LZ3DJ-18 | 2026-09-01 05:58:18 | 42.61225 | 23.60561 | 101° | 86km/h | 10105m | 7.7m/s | -39.3°C | 21.7% | 0hPa | 0V | 00:00:00 | 00:00:00 | 00:00:00 | |
| LZ4TU-5 | 2026-09-01 05:58:12 | 42.61255 | 23.60363 | 103° | 84km/h | 10065m | 6.2m/s | 0°C | 0% | 0hPa | 0V | 00:00:00 | 00:00:00 | 00:00:00 | |
| LZ4TU-5 | 2026-09-01 05:58:08 | 42.61271 | 23.60247 | 98° | 88km/h | 10041m | 4.3m/s | 0°C | 0% | 0hPa | 0V | 00:00:00 | 00:00:00 | 00:00:00 | |
| LZ3DJ-18 | 2026-09-01 05:57:58 | 42.61293 | 23.59944 | 104° | 89km/h | 9985m | 5.2m/s | -38.2°C | 20.4% | 0hPa | 0V | 00:00:00 | 00:00:00 | 00:00:00 | |
| LZ3DJ-18 | 2026-09-01 05:57:37 | 42.61353 | 23.59326 | 102° | 93km/h | 9863m | 6.4m/s | -37.2°C | 20.4% | 0hPa | 0V | 00:00:00 | 00:00:00 | 00:00:00 | |
| LZ3DJ-18 | 2026-09-01 05:57:16 | 42.61390 | 23.58734 | 98° | 75km/h | 9746m | 5.3m/s | -36.4°C | 23.0% | 0hPa | 0V | 00:00:00 | 00:00:00 | 00:00:00 | |
| LZ3DJ-18 | 2026-09-01 05:56:55 | 42.61400 | 23.58168 | 88° | 78km/h | 9633m | 5.7m/s | -35.4°C | 21.5% | 0hPa | 0V | 00:00:00 | 00:00:00 | 00:00:00 | |
| LZ4TU-5 | 2026-09-01 05:56:40 | 42.61399 | 23.57779 | 89° | 71km/h | 9555m | 5.8m/s | 0°C | 0% | 0hPa | 0V | 00:00:00 | 00:00:00 | 00:00:00 | |
| LZ4TU-5 | 2026-09-01 05:56:36 | 42.61393 | 23.57676 | 85° | 78km/h | 9535m | 6.2m/s | 0°C | 0% | 0hPa | 0V | 00:00:00 | 00:00:00 | 00:00:00 | |
| LZ3DJ-18 | 2026-09-01 05:56:35 | 42.61391 | 23.57649 | 85° | 77km/h | 9528m | 6.6m/s | -34.5°C | 19.3% | 0hPa | 0V | 00:00:00 | 00:00:00 | 00:00:00 | |
| LZ3DJ-18 | 2026-09-01 05:56:14 | 42.61383 | 23.57124 | 88° | 68km/h | 9423m | 3.1m/s | -33.4°C | 17.9% | 0hPa | 0V | 00:00:00 | 00:00:00 | 00:00:00 | |
| LZ3DJ-18 | 2026-09-01 05:55:53 | 42.61386 | 23.56631 | 85° | 80km/h | 9321m | 6.2m/s | -32.5°C | 15.8% | 0hPa | 0V | 00:00:00 | 00:00:00 | 00:00:00 | |
| LZ3DJ-18 | 2026-09-01 05:55:33 | 42.61358 | 23.56101 | 85° | 69km/h | 9206m | 5.8m/s | -31.4°C | 14.9% | 0hPa | 0V | 00:00:00 | 00:00:00 | 00:00:00 | |
| LZ3DJ-18 | 2026-09-01 05:55:13 | 42.61351 | 23.55601 | 94° | 78km/h | 9092m | 5.5m/s | -30.4°C | 14.2% | 0hPa | 0V | 00:00:00 | 00:00:00 | 00:00:00 | |
| LZ4TU-5 | 2026-09-01 05:55:08 | 42.61349 | 23.55472 | 87° | 66km/h | 9062m | 5.3m/s | 0°C | 0% | 0hPa | 0V | 00:00:00 | 00:00:00 | 00:00:00 | |
| LZ4TU-5 | 2026-09-01 05:55:04 | 42.61347 | 23.55381 | 92° | 69km/h | 9043m | 5.2m/s | 0°C | 0% | 0hPa | 0V | 00:00:00 | 00:00:00 | 00:00:00 | |
| LZ3DJ-18 | 2026-09-01 05:54:52 | 42.61340 | 23.55094 | 88° | 64km/h | 8984m | 4.8m/s | -29.5°C | 13.6% | 0hPa | 0V | 00:00:00 | 00:00:00 | 00:00:00 | |
| LZ3DJ-18 | 2026-09-01 05:54:31 | 42.61356 | 23.54587 | 95° | 73km/h | 8881m | 6.7m/s | -28.7°C | 14.5% | 0hPa | 0V | 00:00:00 | 00:00:00 | 00:00:00 | |
| LZ3DJ-18 | 2026-09-01 05:54:12 | 42.61359 | 23.54122 | 91° | 75km/h | 8773m | 5.9m/s | -27.7°C | 14.5% | 0hPa | 0V | 00:00:00 | 00:00:00 | 00:00:00 | |
| LZ3DJ-18 | 2026-09-01 05:53:51 | 42.61383 | 23.53658 | 99° | 68km/h | 8667m | 5.4m/s | -26.7°C | 13.8% | 0hPa | 0V | 00:00:00 | 00:00:00 | 00:00:00 | |
| LZ4TU-5 | 2026-09-01 05:53:35 | 42.61406 | 23.53277 | 99° | 62km/h | 8581m | 4.3m/s | 0°C | 0% | 0hPa | 0V | 00:00:00 | 00:00:00 | 00:00:00 | |
| LZ3DJ-18 | 2026-09-01 05:53:31 | 42.61416 | 23.53191 | 99° | 64km/h | 8562m | 3.5m/s | -25.7°C | 13.0% | 0hPa | 0V | 00:00:00 | 00:00:00 | 00:00:00 | |
| LZ4TU-5 | 2026-09-01 05:53:30 | 42.61419 | 23.53169 | 98° | 64km/h | 8557m | 6.8m/s | 0°C | 0% | 0hPa | 0V | 00:00:00 | 00:00:00 | 00:00:00 | |
| LZ3DJ-18 | 2026-09-01 05:53:10 | 42.61446 | 23.52697 | 99° | 73km/h | 8450m | 6.7m/s | -24.7°C | 11.8% | 0hPa | 0V | 00:00:00 | 00:00:00 | 00:00:00 | |
| LZ3DJ-18 | 2026-09-01 05:52:50 | 42.61482 | 23.52247 | 104° | 58km/h | 8352m | 5.6m/s | -23.7°C | 11.0% | 0hPa | 0V | 00:00:00 | 00:00:00 | 00:00:00 | |
| LZ3DJ-18 | 2026-09-01 05:52:29 | 42.61513 | 23.51757 | 89° | 69km/h | 8245m | 5.4m/s | -22.8°C | 10.1% | 0hPa | 0V | 00:00:00 | 00:00:00 | 00:00:00 | |
| LZ3DJ-18 | 2026-09-01 05:52:08 | 42.61547 | 23.51266 | 96° | 69km/h | 8142m | 6.8m/s | -22.0°C | 6.7% | 0hPa | 0V | 00:00:00 | 00:00:00 | 00:00:00 | |
| LZ4TU-5 | 2026-09-01 05:51:59 | 42.61555 | 23.51064 | 90° | 64km/h | 8098m | 7.5m/s | 0°C | 0% | 0hPa | 0V | 00:00:00 | 00:00:00 | 00:00:00 | |
| LZ4TU-5 | 2026-09-01 05:51:54 | 42.61555 | 23.50951 | 97° | 69km/h | 8074m | 8.4m/s | 0°C | 0% | 0hPa | 0V | 00:00:00 | 00:00:00 | 00:00:00 | |
| LZ4TU-5 | 2026-09-01 05:51:50 | 42.61563 | 23.50859 | 98° | 71km/h | 8051m | 6.6m/s | 0°C | 0% | 0hPa | 0V | 00:00:00 | 00:00:00 | 00:00:00 | |
| LZ3DJ-18 | 2026-09-01 05:51:48 | 42.61569 | 23.50812 | 100° | 68km/h | 8040m | 1.2m/s | -21.2°C | 7.1% | 0hPa | 0V | 00:00:00 | 00:00:00 | 00:00:00 | |
| LZ3DJ-18 | 2026-09-01 05:51:28 | 42.61612 | 23.50398 | 101° | 66km/h | 7946m | 4.9m/s | -20.7°C | 6.2% | 0hPa | 0V | 00:00:00 | 00:00:00 | 00:00:00 | |
| LZ3DJ-18 | 2026-09-01 05:51:07 | 42.61695 | 23.49929 | 106° | 60km/h | 7843m | 3.6m/s | -19.9°C | 6.1% | 0hPa | 0V | 00:00:00 | 00:00:00 | 00:00:00 | |
| LZ3DJ-18 | 2026-09-01 05:50:46 | 42.61771 | 23.49491 | 100° | 57km/h | 7745m | 6.6m/s | -19.3°C | 5.5% | 0hPa | 0V | 00:00:00 | 00:00:00 | 00:00:00 | |
| LZ4TU-5 | 2026-09-01 05:50:25 | 42.61845 | 23.49081 | 106° | 64km/h | 7650m | 4.3m/s | 0°C | 0% | 0hPa | 0V | 00:00:00 | 00:00:00 | 00:00:00 | |
| LZ4TU-5 | 2026-09-01 05:50:20 | 42.61862 | 23.48980 | 105° | 62km/h | 7625m | 3.8m/s | 0°C | 0% | 0hPa | 0V | 00:00:00 | 00:00:00 | 00:00:00 | |
| LZ3DJ-18 | 2026-09-01 05:50:04 | 42.61923 | 23.48707 | 111° | 42km/h | 7550m | 5.0m/s | -18.5°C | 9.7% | 0hPa | 0V | 00:00:00 | 00:00:00 | 00:00:00 | |
| LZ3DJ-18 | 2026-09-01 05:49:44 | 42.61967 | 23.48392 | 106° | 49km/h | 7444m | 5.0m/s | -17.8°C | 11.0% | 0hPa | 0V | 00:00:00 | 00:00:00 | 00:00:00 | |
| LZ3DJ-18 | 2026-09-01 05:49:24 | 42.62019 | 23.48079 | 103° | 49km/h | 7350m | 5.3m/s | -17.1°C | 12.5% | 0hPa | 0V | 00:00:00 | 00:00:00 | 00:00:00 | |
| LZ3DJ-18 | 2026-09-01 05:49:03 | 42.62078 | 23.47760 | 111° | 47km/h | 7243m | 7.8m/s | -16.1°C | 11.8% | 0hPa | 0V | 00:00:00 | 00:00:00 | 00:00:00 | |
| LZ4TU-5 | 2026-09-01 05:48:51 | 42.62126 | 23.47579 | 117° | 49km/h | 7182m | 5.0m/s | 0°C | 0% | 0hPa | 0V | 00:00:00 | 00:00:00 | 00:00:00 | |
| LZ4TU-5 | 2026-09-01 05:48:46 | 42.62151 | 23.47507 | 109° | 42km/h | 7151m | 5.1m/s | 0°C | 0% | 0hPa | 0V | 00:00:00 | 00:00:00 | 00:00:00 | |
| LZ3DJ-18 | 2026-09-01 05:48:42 | 42.62160 | 23.47452 | 101° | 38km/h | 7133m | 6.0m/s | -15.2°C | 10.6% | 0hPa | 0V | 00:00:00 | 00:00:00 | 00:00:00 | |
| LZ3DJ-18 | 2026-09-01 05:48:21 | 42.62276 | 23.47138 | 112° | 46km/h | 7005m | 5.9m/s | -14.0°C | 9.3% | 0hPa | 0V | 00:00:00 | 00:00:00 | 00:00:00 | |
| LZ3DJ-18 | 2026-09-01 05:48:01 | 42.62395 | 23.46828 | 118° | 47km/h | 6895m | 7.9m/s | -13.0°C | 8.1% | 0hPa | 0V | 00:00:00 | 00:00:00 | 00:00:00 | |
| LZ3DJ-18 | 2026-09-01 05:47:40 | 42.62552 | 23.46510 | 128° | 57km/h | 6778m | 5.3m/s | -12.1°C | 7.4% | 0hPa | 0V | 00:00:00 | 00:00:00 | 00:00:00 | |
| LZ3DJ-18 | 2026-09-01 05:47:20 | 42.62698 | 23.46183 | 131° | 55km/h | 6667m | 5.2m/s | -11.4°C | 11.8% | 0hPa | 0V | 00:00:00 | 00:00:00 | 00:00:00 | |
| LZ4TU-5 | 2026-09-01 05:47:15 | 42.62736 | 23.46112 | 123° | 44km/h | 6639m | 8.5m/s | 0°C | 0% | 0hPa | 0V | 00:00:00 | 00:00:00 | 00:00:00 | |
| LZ3DJ-18 | 2026-09-01 05:46:59 | 42.62830 | 23.45871 | 124° | 49km/h | 6546m | 8.3m/s | -10.3°C | 11.4% | 0hPa | 0V | 00:00:00 | 00:00:00 | 00:00:00 | |
| LZ3DJ-18 | 2026-09-01 05:46:38 | 42.62969 | 23.45572 | 120° | 51km/h | 6426m | 7.7m/s | -9.5°C | 11.5% | 0hPa | 0V | 00:00:00 | 00:00:00 | 00:00:00 | |
| LZ3DJ-18 | 2026-09-01 05:46:18 | 42.63112 | 23.45260 | 126° | 58km/h | 6305m | 7.6m/s | -8.9°C | 10.7% | 0hPa | 0V | 00:00:00 | 00:00:00 | 00:00:00 | |
| LZ3DJ-18 | 2026-09-01 05:45:58 | 42.63246 | 23.44965 | 133° | 47km/h | 6197m | 4.5m/s | -8.0°C | 8.5% | 0hPa | 0V | 00:00:00 | 00:00:00 | 00:00:00 | |
| LZ4TU-5 | 2026-09-01 05:45:47 | 42.63311 | 23.44823 | 123° | 49km/h | 6127m | 8.2m/s | 0°C | 0% | 0hPa | 0V | 00:00:00 | 00:00:00 | 00:00:00 | |
| LZ4TU-5 | 2026-09-01 05:45:43 | 42.63339 | 23.44760 | 116° | 51km/h | 6100m | 4.9m/s | 0°C | 0% | 0hPa | 0V | 00:00:00 | 00:00:00 | 00:00:00 | |
| LZ3DJ-18 | 2026-09-01 05:45:36 | 42.63371 | 23.44684 | 130° | 46km/h | 6064m | 6.4m/s | -7.0°C | 9.4% | 0hPa | 0V | 00:00:00 | 00:00:00 | 00:00:00 | |
| LZ3DJ-18 | 2026-09-01 05:44:56 | 42.63575 | 23.44111 | 118° | 38km/h | 5816m | 6.0m/s | -6.7°C | 14.2% | 0hPa | 0V | 00:00:00 | 00:00:00 | 00:00:00 | |
| LZ3DJ-18 | 2026-09-01 05:44:34 | 42.63668 | 23.43868 | 144° | 38km/h | 5700m | 6.3m/s | -6.4°C | 33.6% | 0hPa | 0V | 00:00:00 | 00:00:00 | 00:00:00 | |
| LZ3DJ-18 | 2026-09-01 05:44:14 | 42.63760 | 23.43704 | 147° | 22km/h | 5564m | 4.7m/s | -6.3°C | 48.0% | 0hPa | 0V | 00:00:00 | 00:00:00 | 00:00:00 | |
| LZ4TU-5 | 2026-09-01 05:44:12 | 42.63765 | 23.43700 | 149° | 22km/h | 5558m | 6.8m/s | 0°C | 0% | 0hPa | 0V | 00:00:00 | 00:00:00 | 00:00:00 | |
| LZ4TU-5 | 2026-09-01 05:44:08 | 42.63793 | 23.43676 | 158° | 20km/h | 5529m | 3.4m/s | 0°C | 0% | 0hPa | 0V | 00:00:00 | 00:00:00 | 00:00:00 | |
| LZ4TU-5 | 2026-09-01 05:44:03 | 42.63814 | 23.43661 | 136° | 16km/h | 5503m | 5.2m/s | 0°C | 0% | 0hPa | 0V | 00:00:00 | 00:00:00 | 00:00:00 | |
| LZ3DJ-18 | 2026-09-01 05:43:53 | 42.63877 | 23.43633 | 170° | 29km/h | 5446m | 7.5m/s | -6.2°C | 55.4% | 0hPa | 0V | 00:00:00 | 00:00:00 | 00:00:00 | |
| LZ3DJ-18 | 2026-09-01 05:43:33 | 42.64014 | 23.43523 | 127° | 29km/h | 5321m | 7.9m/s | -6.6°C | 51.2% | 0hPa | 0V | 00:00:00 | 00:00:00 | 00:00:00 | |
| LZ3DJ-18 | 2026-09-01 05:43:12 | 42.64103 | 23.43300 | 109° | 33km/h | 5194m | 3.8m/s | -6.7°C | 81.4% | 0hPa | 0V | 00:00:00 | 00:00:00 | 00:00:00 | |
| LZ3DJ-18 | 2026-09-01 05:42:52 | 42.64163 | 23.43020 | 93° | 42km/h | 5083m | 6.2m/s | -6.1°C | 87.2% | 0hPa | 0V | 00:00:00 | 00:00:00 | 00:00:00 | |
| LZ3DJ-18 | 2026-09-01 05:42:31 | 42.64219 | 23.42683 | 107° | 44km/h | 4970m | 4.9m/s | -5.2°C | 92.7% | 0hPa | 0V | 00:00:00 | 00:00:00 | 00:00:00 | |
| LZ4TU-5 | 2026-09-01 05:42:27 | 42.64232 | 23.42624 | 111° | 46km/h | 4949m | 2.9m/s | 0°C | 0% | 0hPa | 0V | 00:00:00 | 00:00:00 | 00:00:00 | |
| LZ4TU-5 | 2026-09-01 05:42:22 | 42.64240 | 23.42539 | 97° | 57km/h | 4927m | 3.5m/s | 0°C | 0% | 0hPa | 0V | 00:00:00 | 00:00:00 | 00:00:00 | |
| LZ3DJ-18 | 2026-09-01 05:42:11 | 42.64287 | 23.42343 | 99° | 62km/h | 4873m | 6.9m/s | -4.5°C | 94.5% | 0hPa | 0V | 00:00:00 | 00:00:00 | 00:00:00 | |
| LZ3DJ-18 | 2026-09-01 05:41:50 | 42.64354 | 23.41979 | 104° | 55km/h | 4746m | 6.5m/s | -4.1°C | 91.1% | 0hPa | 0V | 00:00:00 | 00:00:00 | 00:00:00 | |
| LZ3DJ-18 | 2026-09-01 05:41:30 | 42.64398 | 23.41693 | 118° | 40km/h | 4630m | 5.6m/s | -3.2°C | 96.7% | 0hPa | 0V | 00:00:00 | 00:00:00 | 00:00:00 | |
| LZ3DJ-18 | 2026-09-01 05:41:10 | 42.64456 | 23.41434 | 116° | 42km/h | 4503m | 9.3m/s | -2.5°C | 0% | 0hPa | 0V | 00:00:00 | 00:00:00 | 00:00:00 | |
| LZ4TU-5 | 2026-09-01 05:40:55 | 42.64521 | 23.41270 | 114° | 31km/h | 4393m | 7.6m/s | 0°C | 0% | 0hPa | 0V | 00:00:00 | 00:00:00 | 00:00:00 | |
| LZ4TU-5 | 2026-09-01 05:40:51 | 42.64534 | 23.41240 | 106° | 18km/h | 4365m | 7.1m/s | 0°C | 0% | 0hPa | 0V | 00:00:00 | 00:00:00 | 00:00:00 | |
| LZ3DJ-18 | 2026-09-01 05:40:49 | 42.64536 | 23.41225 | 98° | 26km/h | 4351m | 8.3m/s | -1.5°C | 0% | 0hPa | 0V | 00:00:00 | 00:00:00 | 00:00:00 | |
| LZ3DJ-18 | 2026-09-01 05:40:28 | 42.64576 | 23.41080 | 119° | 24km/h | 4219m | 5.8m/s | -0.8°C | 0% | 0hPa | 0V | 00:00:00 | 00:00:00 | 00:00:00 | |
| LZ3DJ-18 | 2026-09-01 05:40:08 | 42.64590 | 23.40917 | 103° | 16km/h | 4088m | 8.6m/s | -0.0°C | 98.8% | 0hPa | 0V | 00:00:00 | 00:00:00 | 00:00:00 | |
| LZ3DJ-18 | 2026-09-01 05:39:48 | 42.64613 | 23.40754 | 105° | 15km/h | 3965m | 4.4m/s | 1.0°C | 94.6% | 0hPa | 0V | 00:00:00 | 00:00:00 | 00:00:00 | |
| LZ3DJ-18 | 2026-09-01 05:39:27 | 42.64617 | 23.40625 | 108° | 22km/h | 3826m | 9.1m/s | 1.9°C | 97.1% | 0hPa | 0V | 00:00:00 | 00:00:00 | 00:00:00 | |
| LZ4TU-5 | 2026-09-01 05:39:23 | 42.64622 | 23.40608 | 146° | 15km/h | 3796m | 5.9m/s | 0°C | 0% | 0hPa | 0V | 00:00:00 | 00:00:00 | 00:00:00 | |
| LZ4TU-5 | 2026-09-01 05:39:19 | 42.64631 | 23.40583 | 93° | 26km/h | 3774m | 6.5m/s | 0°C | 0% | 0hPa | 0V | 00:00:00 | 00:00:00 | 00:00:00 | |
| LZ3DJ-18 | 2026-09-01 05:39:06 | 42.64638 | 23.40512 | 123° | 15km/h | 3697m | 3.4m/s | 3.0°C | 85.0% | 0hPa | 0V | 00:00:00 | 00:00:00 | 00:00:00 | |
| LZ3DJ-18 | 2026-09-01 05:38:45 | 42.64675 | 23.40411 | 97° | 18km/h | 3574m | 4.9m/s | 4.0°C | 81.5% | 0hPa | 0V | 00:00:00 | 00:00:00 | 00:00:00 | |
| LZ3DJ-18 | 2026-09-01 05:38:25 | 42.64719 | 23.40331 | 153° | 16km/h | 3449m | 8.2m/s | 5.0°C | 84.2% | 0hPa | 0V | 00:00:00 | 00:00:00 | 00:00:00 | |
| LZ3DJ-18 | 2026-09-01 05:38:04 | 42.64772 | 23.40276 | 114° | 16km/h | 3327m | 8.5m/s | 6.1°C | 84.2% | 0hPa | 0V | 00:00:00 | 00:00:00 | 00:00:00 | |
| LZ4TU-5 | 2026-09-01 05:37:50 | 42.64804 | 23.40217 | 103° | 27km/h | 3243m | 4.7m/s | 0°C | 0% | 0hPa | 0V | 00:00:00 | 00:00:00 | 00:00:00 | |
| LZ4TU-5 | 2026-09-01 05:37:45 | 42.64819 | 23.40187 | 145° | 15km/h | 3211m | 6.8m/s | 0°C | 0% | 0hPa | 0V | 00:00:00 | 00:00:00 | 00:00:00 | |
| LZ3DJ-18 | 2026-09-01 05:37:44 | 42.64821 | 23.40184 | 136° | 11km/h | 3204m | 6.0m/s | 7.1°C | 84.2% | 0hPa | 0V | 00:00:00 | 00:00:00 | 00:00:00 | |
| LZ4TU-5 | 2026-09-01 05:37:40 | 42.64827 | 23.40172 | 127° | 16km/h | 3181m | 6.7m/s | 0°C | 0% | 0hPa | 0V | 00:00:00 | 00:00:00 | 00:00:00 | |
| LZ3DJ-18 | 2026-09-01 05:37:23 | 42.64849 | 23.40090 | 87° | 20km/h | 3064m | 6.3m/s | 8.1°C | 88.2% | 0hPa | 0V | 00:00:00 | 00:00:00 | 00:00:00 | |
| LZ3DJ-18 | 2026-09-01 05:37:02 | 42.64866 | 23.39962 | 117° | 13km/h | 2938m | 5.5m/s | 9.0°C | 83.6% | 0hPa | 0V | 00:00:00 | 00:00:00 | 00:00:00 | |
| LZ3DJ-18 | 2026-09-01 05:36:41 | 42.64892 | 23.39819 | 131° | 27km/h | 2814m | 6.7m/s | 10.0°C | 79.2% | 0hPa | 0V | 00:00:00 | 00:00:00 | 00:00:00 | |
| LZ3DJ-18 | 2026-09-01 05:36:21 | 42.64911 | 23.39692 | 126° | 16km/h | 2694m | 6.0m/s | 11.0°C | 75.9% | 0hPa | 0V | 00:00:00 | 00:00:00 | 00:00:00 | |
| LZ4TU-5 | 2026-09-01 05:36:12 | 42.64931 | 23.39634 | 139° | 18km/h | 2647m | 4.6m/s | 0°C | 0% | 0hPa | 0V | 00:00:00 | 00:00:00 | 00:00:00 | |
| LZ4TU-5 | 2026-09-01 05:36:07 | 42.64941 | 23.39600 | 99° | 24km/h | 2615m | 4.8m/s | 0°C | 0% | 0hPa | 0V | 00:00:00 | 00:00:00 | 00:00:00 | |
| LZ3DJ-18 | 2026-09-01 05:36:00 | 42.64956 | 23.39552 | 105° | 27km/h | 2578m | 5.6m/s | 11.8°C | 71.6% | 0hPa | 0V | 00:00:00 | 00:00:00 | 00:00:00 | |
| LZ3DJ-18 | 2026-09-01 05:35:40 | 42.65018 | 23.39409 | 94° | 18km/h | 2470m | 5.5m/s | 12.7°C | 69.5% | 0hPa | 0V | 00:00:00 | 00:00:00 | 00:00:00 | |
| LZ3DJ-18 | 2026-09-01 05:35:20 | 42.65091 | 23.39250 | 145° | 29km/h | 2340m | 5.0m/s | 13.9°C | 64.9% | 0hPa | 0V | 00:00:00 | 00:00:00 | 00:00:00 | |
| LZ3DJ-18 | 2026-09-01 05:34:58 | 42.65180 | 23.39117 | 124° | 26km/h | 2213m | 4.4m/s | 14.7°C | 64.5% | 0hPa | 0V | 00:00:00 | 00:00:00 | 00:00:00 | |
| LZ3DJ-18 | 2026-09-01 05:34:39 | 42.65250 | 23.39014 | 119° | 20km/h | 2097m | 6.5m/s | 15.6°C | 63.5% | 0hPa | 0V | 00:00:00 | 00:00:00 | 00:00:00 | |
| LZ3DJ-18 | 2026-09-01 05:34:19 | 42.65313 | 23.38884 | 126° | 24km/h | 1975m | 4.4m/s | 16.6°C | 61.4% | 0hPa | 0V | 00:00:00 | 00:00:00 | 00:00:00 | |
| LZ3DJ-18 | 2026-09-01 05:33:58 | 42.65375 | 23.38717 | 111° | 27km/h | 1850m | 5.0m/s | 17.6°C | 61.0% | 0hPa | 0V | 00:00:00 | 00:00:00 | 00:00:00 | |
| LZ3DJ-18 | 2026-09-01 05:33:37 | 42.65389 | 23.38507 | 85° | 33km/h | 1723m | 8.0m/s | 18.1°C | 63.9% | 0hPa | 0V | 00:00:00 | 00:00:00 | 00:00:00 | |
| LZ3DJ-18 | 2026-09-01 05:33:16 | 42.65368 | 23.38353 | 69° | 26km/h | 1603m | 5.0m/s | 18.4°C | 62.9% | 0hPa | 0V | 00:00:00 | 00:00:00 | 00:00:00 | |
| LZ3DJ-18 | 2026-09-01 05:32:56 | 42.65369 | 23.38294 | 185° | 11km/h | 1478m | 6.1m/s | 17.6°C | 59.0% | 0hPa | 0V | 00:00:00 | 00:00:00 | 00:00:00 | |
| LZ3DJ-18 | 2026-09-01 05:32:36 | 42.65402 | 23.38295 | 153° | 13km/h | 1356m | 5.0m/s | 18.8°C | 53.4% | 0hPa | 0V | 00:00:00 | 00:00:00 | 00:00:00 | |
| LZ3DJ-18 | 2026-09-01 05:32:15 | 42.65429 | 23.38305 | 359° | 4km/h | 1248m | 7.5m/s | 19.0°C | 50.6% | 0hPa | 0V | 00:00:00 | 00:00:00 | 00:00:00 | |
| LZ3DJ-18 | 2026-09-01 05:31:55 | 42.65432 | 23.38334 | 343° | 2km/h | 1119m | 5.1m/s | 0°C | 0% | 0hPa | 0V | 00:00:00 | 00:00:00 | 00:00:00 | |
| LZ3DJ-18 | 2026-09-01 05:31:34 | 42.65434 | 23.38359 | 203° | 11km/h | 998m | 7.3m/s | 0°C | 0% | 0hPa | 0V | 00:00:00 | 00:00:00 | 00:00:00 | |
| LZ3DJ-18 | 2026-09-01 05:31:14 | 42.65414 | 23.38365 | 1° | 16km/h | 878m | 6.6m/s | 0°C | 0% | 0hPa | 0V | 00:00:00 | 00:00:00 | 00:00:00 | |
| LZ3DJ-18 | 2026-09-01 05:30:53 | 42.65397 | 23.38338 | 17° | 26km/h | 758m | 5.8m/s | 0°C | 0% | 0hPa | 0V | 00:00:00 | 00:00:00 | 00:00:00 |